createdAt,value
2023-03-18T00:00:43.620Z,30.60
2023-03-18T00:03:10.848Z,28.40
2023-03-18T00:05:38.245Z,29.15
2023-03-18T00:08:06.640Z,29.35
2023-03-18T00:10:35.229Z,29.50
2023-03-18T00:13:04.707Z,26.63
2023-03-18T00:15:31.565Z,25.48
2023-03-18T00:17:59.858Z,29.50
2023-03-18T00:20:38.747Z,31.05
2023-03-18T00:23:09.328Z,28.80
2023-03-18T00:25:37.742Z,25.67
2023-03-18T00:28:06.537Z,29.48
2023-03-18T00:30:34.760Z,27.50
2023-03-18T00:33:01.990Z,31.08
2023-03-18T00:35:30.542Z,27.80
2023-03-18T00:37:58.705Z,28.20
2023-03-18T00:40:42.884Z,27.05
2023-03-18T00:43:11.196Z,30.17
2023-03-18T00:45:40.243Z,27.30
2023-03-18T00:48:07.881Z,27.98
2023-03-18T00:50:37.620Z,27.35
2023-03-18T00:53:04.596Z,27.92
2023-03-18T00:55:32.463Z,28.75
2023-03-18T00:57:59.220Z,28.48
2023-03-18T01:00:26.256Z,30.90
2023-03-18T01:02:53.876Z,29.02
2023-03-18T01:05:21.027Z,27.15
2023-03-18T01:07:48.222Z,29.15
2023-03-18T01:10:16.084Z,25.90
2023-03-18T01:12:46.613Z,27.42
2023-03-18T01:15:16.857Z,30.00
2023-03-18T01:17:44.199Z,29.23
2023-03-18T01:20:13.125Z,24.65
2023-03-18T01:22:43.309Z,27.35
2023-03-18T01:25:11.720Z,31.20
2023-03-18T01:27:38.773Z,28.45
2023-03-18T01:30:06.900Z,25.58
2023-03-18T01:32:34.391Z,25.88
2023-03-18T01:35:01.418Z,30.25
2023-03-18T01:37:28.958Z,24.27
2023-03-18T01:39:55.984Z,29.45
2023-03-18T01:42:22.914Z,26.88
2023-03-18T01:44:49.839Z,25.65
2023-03-18T01:47:21.048Z,26.17
2023-03-18T01:49:50.245Z,22.15
2023-03-18T01:52:24.800Z,25.27
2023-03-18T01:54:59.712Z,26.65
2023-03-18T01:57:27.887Z,31.30
2023-03-18T01:59:56.118Z,31.27
2023-03-18T02:02:23.319Z,37.72
2023-03-18T02:04:53.785Z,26.38
2023-03-18T02:07:31.954Z,25.75
2023-03-18T02:10:02.767Z,29.10
2023-03-18T02:12:33.418Z,26.53
2023-03-18T02:15:02.644Z,26.00
2023-03-18T02:17:33.300Z,26.58
2023-03-18T02:20:38.754Z,26.45
2023-03-18T02:23:23.502Z,28.60
2023-03-18T02:26:13.617Z,26.33
2023-03-18T02:28:41.598Z,27.58
2023-03-18T02:31:11.960Z,28.73
2023-03-18T02:33:41.913Z,34.45
2023-03-18T02:36:16.092Z,32.63
2023-03-18T02:38:44.094Z,31.52
2023-03-18T02:41:24.989Z,28.40
2023-03-18T02:43:52.125Z,34.33
2023-03-18T02:46:41.606Z,35.67
2023-03-18T02:49:08.689Z,28.70
2023-03-18T02:51:37.264Z,28.98
2023-03-18T02:54:15.921Z,30.73
2023-03-18T02:56:43.924Z,27.10
2023-03-18T02:59:11.627Z,27.30
2023-03-18T03:01:39.837Z,29.08
2023-03-18T03:04:07.644Z,29.27
2023-03-18T03:06:35.171Z,30.05
2023-03-18T03:09:03.706Z,27.60
2023-03-18T03:11:30.704Z,28.63
2023-03-18T03:13:57.479Z,27.83
2023-03-18T03:16:24.350Z,29.10
2023-03-18T03:18:51.695Z,29.65
2023-03-18T03:21:18.632Z,30.73
2023-03-18T03:23:46.550Z,28.98
2023-03-18T03:26:13.799Z,25.52
2023-03-18T03:28:40.581Z,27.52
2023-03-18T03:31:07.363Z,30.88
2023-03-18T03:33:34.148Z,28.83
2023-03-18T03:36:01.081Z,32.20
2023-03-18T03:38:28.460Z,26.63
2023-03-18T03:40:55.278Z,28.40
2023-03-18T03:43:22.644Z,26.77
2023-03-18T03:45:49.647Z,27.92
2023-03-18T03:48:16.531Z,30.25
2023-03-18T03:50:43.263Z,28.63
2023-03-18T03:53:10.461Z,28.45
2023-03-18T03:55:37.843Z,32.83
2023-03-18T03:58:04.994Z,32.13
2023-03-18T04:00:33.223Z,30.65
2023-03-18T04:03:00.254Z,30.27
2023-03-18T04:05:27.270Z,27.65
2023-03-18T04:07:55.333Z,35.55
2023-03-18T04:10:22.771Z,31.20
2023-03-18T04:12:50.077Z,32.35
2023-03-18T04:15:19.750Z,29.23
2023-03-18T04:17:46.730Z,30.45
2023-03-18T04:20:14.812Z,34.83
2023-03-18T04:22:41.969Z,33.88
2023-03-18T04:25:11.074Z,35.13
2023-03-18T04:27:38.585Z,36.50
2023-03-18T04:30:08.326Z,34.97
2023-03-18T04:32:35.172Z,34.08
2023-03-18T04:35:02.697Z,38.30
2023-03-18T04:37:29.545Z,35.78
2023-03-18T04:39:56.545Z,31.08
2023-03-18T04:42:23.376Z,33.42
2023-03-18T04:44:50.103Z,30.52
2023-03-18T04:47:16.861Z,31.60
2023-03-18T04:49:43.973Z,34.58
2023-03-18T04:52:11.182Z,33.70
2023-03-18T04:54:39.074Z,34.40
2023-03-18T04:57:06.723Z,28.33
2023-03-18T04:59:34.105Z,28.15
2023-03-18T05:02:01.222Z,28.02
2023-03-18T05:04:28.282Z,26.45
2023-03-18T05:06:55.119Z,27.45
2023-03-18T05:09:22.131Z,29.70
2023-03-18T05:11:48.805Z,31.85
2023-03-18T05:14:15.600Z,29.27
2023-03-18T05:16:43.199Z,32.70
2023-03-18T05:19:10.685Z,32.45
2023-03-18T05:21:37.994Z,29.83
2023-03-18T05:24:04.949Z,32.63
2023-03-18T05:26:31.639Z,35.63
2023-03-18T05:28:59.357Z,29.73
2023-03-18T05:31:26.101Z,34.05
2023-03-18T05:33:52.875Z,34.72
2023-03-18T05:36:19.639Z,36.55
2023-03-18T05:38:46.724Z,36.80
2023-03-18T05:41:13.764Z,33.28
2023-03-18T05:43:40.465Z,37.28
2023-03-18T05:46:07.306Z,35.88
2023-03-18T05:48:34.180Z,34.40
2023-03-18T05:51:00.918Z,34.05
2023-03-18T05:53:27.702Z,33.35
2023-03-18T05:55:54.474Z,31.85
2023-03-18T05:58:21.243Z,33.67
2023-03-18T06:00:47.971Z,31.23
2023-03-18T06:03:14.901Z,35.15
2023-03-18T06:05:42.140Z,30.30
2023-03-18T06:08:08.972Z,33.13
2023-03-18T06:10:35.806Z,30.45
2023-03-18T06:13:02.497Z,31.67
2023-03-18T06:15:30.546Z,31.38
2023-03-18T06:17:57.615Z,28.17
2023-03-18T06:20:24.327Z,29.48
2023-03-18T06:22:51.677Z,28.77
2023-03-18T06:25:20.400Z,27.67
2023-03-18T06:27:48.028Z,30.02
2023-03-18T06:30:16.638Z,28.98
2023-03-18T06:32:46.217Z,29.73
2023-03-18T06:35:13.796Z,26.52
2023-03-18T06:37:41.212Z,26.77
2023-03-18T06:40:10.604Z,26.55
2023-03-18T06:42:37.761Z,33.08
2023-03-18T06:45:05.112Z,25.08
2023-03-18T06:47:31.840Z,28.42
2023-03-18T06:49:58.638Z,30.25
2023-03-18T06:52:25.470Z,32.35
2023-03-18T06:54:52.221Z,29.58
2023-03-18T06:57:20.385Z,32.25
2023-03-18T06:59:48.053Z,33.90
2023-03-18T07:02:15.488Z,30.67
2023-03-18T07:04:42.854Z,32.25
2023-03-18T07:07:09.765Z,34.92
2023-03-18T07:09:36.643Z,34.35
2023-03-18T07:12:03.538Z,32.40
2023-03-18T07:14:30.668Z,34.95
2023-03-18T07:16:57.543Z,39.00
2023-03-18T07:19:24.780Z,35.58
2023-03-18T07:21:52.041Z,35.78
2023-03-18T07:24:21.241Z,33.80
2023-03-18T07:26:50.302Z,34.38
2023-03-18T07:29:17.869Z,32.33
2023-03-18T07:31:45.021Z,32.22
2023-03-18T07:34:12.934Z,34.13
2023-03-18T07:36:39.694Z,33.95
2023-03-18T07:39:07.951Z,32.30
2023-03-18T07:41:37.610Z,34.35
2023-03-18T07:44:05.246Z,29.10
2023-03-18T07:46:32.075Z,30.65
2023-03-18T07:48:58.788Z,30.38
2023-03-18T07:51:26.381Z,31.00
2023-03-18T07:53:53.170Z,35.03
2023-03-18T07:56:20.528Z,27.45
2023-03-18T07:58:47.993Z,28.63
2023-03-18T08:01:18.439Z,31.80
2023-03-18T08:03:46.732Z,27.52
2023-03-18T08:06:15.479Z,26.00
2023-03-18T08:08:43.672Z,27.67
2023-03-18T08:11:11.285Z,31.50
2023-03-18T08:13:39.607Z,29.33
2023-03-18T08:16:06.834Z,27.23
2023-03-18T08:18:33.982Z,29.17
2023-03-18T08:21:01.039Z,28.35
2023-03-18T08:23:27.924Z,26.85
2023-03-18T08:25:54.692Z,26.77
2023-03-18T08:28:21.545Z,28.33
2023-03-18T08:30:48.840Z,26.55
2023-03-18T08:33:16.032Z,27.25
2023-03-18T08:35:43.004Z,25.65
2023-03-18T08:38:09.946Z,21.98
2023-03-18T08:40:36.714Z,25.67
2023-03-18T08:43:03.528Z,21.85
2023-03-18T08:45:30.785Z,24.70
2023-03-18T08:47:57.800Z,25.73
2023-03-18T08:50:28.498Z,26.98
2023-03-18T08:52:57.779Z,26.17
2023-03-18T08:55:35.098Z,24.10
2023-03-18T08:58:02.436Z,25.40
2023-03-18T09:00:29.452Z,29.30
2023-03-18T09:02:56.609Z,24.27
2023-03-18T09:05:24.030Z,25.92
2023-03-18T09:07:52.570Z,26.83
2023-03-18T09:10:20.348Z,33.90
2023-03-18T09:12:47.805Z,30.10
2023-03-18T09:15:14.989Z,29.33
2023-03-18T09:17:59.973Z,28.98
2023-03-18T09:20:29.081Z,29.65
2023-03-18T09:22:56.108Z,29.05
2023-03-18T09:25:22.957Z,29.48
2023-03-18T09:27:49.705Z,28.90
2023-03-18T09:30:16.573Z,27.38
2023-03-18T09:32:43.497Z,31.30
2023-03-18T09:35:13.249Z,27.35
2023-03-18T09:37:40.542Z,23.63
2023-03-18T09:40:08.438Z,27.35
2023-03-18T09:42:58.536Z,27.00
2023-03-18T09:45:57.167Z,27.90
2023-03-18T09:48:30.244Z,29.92
2023-03-18T09:51:05.979Z,30.45
2023-03-18T09:53:44.161Z,33.08
2023-03-18T09:56:32.436Z,30.40
2023-03-18T09:59:03.471Z,31.05
2023-03-18T10:01:34.771Z,29.60
2023-03-18T10:04:04.648Z,32.75
2023-03-18T10:06:31.753Z,27.80
2023-03-18T10:09:02.025Z,28.25
2023-03-18T10:11:44.020Z,29.80
2023-03-18T10:14:38.216Z,27.63
2023-03-18T10:17:20.720Z,31.10
2023-03-18T10:19:59.539Z,28.08
2023-03-18T10:22:29.923Z,23.83
2023-03-18T10:25:04.188Z,23.58
2023-03-18T10:28:01.170Z,23.13
2023-03-18T10:30:37.866Z,23.83
2023-03-18T10:33:17.980Z,19.33
2023-03-18T10:36:24.178Z,21.10
2023-03-18T10:38:53.594Z,19.63
2023-03-18T10:41:25.393Z,17.33
2023-03-18T10:43:55.293Z,18.35
2023-03-18T10:46:24.213Z,16.02
2023-03-18T10:49:00.097Z,18.65
2023-03-18T10:51:32.667Z,19.58
2023-03-18T10:54:28.753Z,19.48
2023-03-18T10:56:55.718Z,20.75
2023-03-18T10:59:24.766Z,21.25
2023-03-18T11:02:01.469Z,19.10
2023-03-18T11:04:30.702Z,22.30
2023-03-18T11:07:03.697Z,21.90
2023-03-18T11:09:33.487Z,21.92
2023-03-18T11:12:06.765Z,20.45
2023-03-18T11:14:37.443Z,23.17
2023-03-18T11:17:04.600Z,21.77
2023-03-18T11:19:38.536Z,16.67
2023-03-18T11:22:11.850Z,19.63
2023-03-18T11:24:42.355Z,18.13
2023-03-18T11:27:15.926Z,19.65
2023-03-18T11:29:53.990Z,20.33
2023-03-18T11:32:28.377Z,18.20
2023-03-18T11:35:00.645Z,20.35
2023-03-18T11:37:39.615Z,17.42
2023-03-18T11:40:28.134Z,20.40
2023-03-18T11:43:00.776Z,22.50
2023-03-18T11:45:48.740Z,21.35
2023-03-18T11:48:20.724Z,17.90
2023-03-18T11:51:27.172Z,15.15
2023-03-18T11:54:25.175Z,17.15
2023-03-18T11:56:58.599Z,17.25
2023-03-18T11:59:52.749Z,16.52
2023-03-18T12:02:58.739Z,19.50
2023-03-18T12:05:34.634Z,17.15
2023-03-18T12:08:13.439Z,19.00
2023-03-18T12:10:57.215Z,19.02
2023-03-18T12:13:35.727Z,19.13
2023-03-18T12:16:37.148Z,16.48
2023-03-18T12:19:16.066Z,19.40
2023-03-18T12:21:51.777Z,17.58
2023-03-18T12:24:21.586Z,15.43
2023-03-18T12:26:53.558Z,15.75
2023-03-18T12:29:52.501Z,15.45
2023-03-18T12:33:04.109Z,15.68
2023-03-18T12:35:38.425Z,16.73
2023-03-18T12:38:41.729Z,14.13
2023-03-18T12:41:27.935Z,11.30
2023-03-18T12:44:22.900Z,11.23
2023-03-18T12:46:54.806Z,11.05
2023-03-18T12:49:30.074Z,6.13
2023-03-18T12:52:03.740Z,8.38
2023-03-18T12:54:40.426Z,6.50
2023-03-18T12:57:36.032Z,8.15
2023-03-18T13:00:10.484Z,4.97
2023-03-18T13:02:55.753Z,7.55
2023-03-18T13:05:47.425Z,7.40
2023-03-18T13:11:26.242Z,7.03
2023-03-18T13:14:00.219Z,11.25
2023-03-18T13:16:28.542Z,9.63
2023-03-18T13:18:57.644Z,9.10
2023-03-18T13:21:30.481Z,8.63
2023-03-18T13:24:00.198Z,7.00
2023-03-18T13:26:53.150Z,8.57
2023-03-18T13:29:19.823Z,11.48
2023-03-18T13:32:04.868Z,13.05
2023-03-18T13:34:43.667Z,6.43
2023-03-18T13:37:17.554Z,8.60
2023-03-18T13:39:53.405Z,9.63
2023-03-18T13:42:28.689Z,7.30
2023-03-18T13:45:05.600Z,8.57
2023-03-18T13:47:35.523Z,6.13
2023-03-18T13:50:06.660Z,5.78
2023-03-18T13:52:58.088Z,5.95
2023-03-18T13:55:32.197Z,5.10
2023-03-18T13:58:18.223Z,3.95
2023-03-18T14:01:09.205Z,5.00
2023-03-18T14:03:42.321Z,5.05
2023-03-18T14:06:09.080Z,4.15
2023-03-18T14:08:47.154Z,6.32
2023-03-18T14:11:16.951Z,4.18
2023-03-18T14:13:45.187Z,5.60
2023-03-18T14:16:14.822Z,4.45
2023-03-18T14:18:43.102Z,6.35
2023-03-18T14:21:25.591Z,5.82
2023-03-18T14:24:21.576Z,5.25
2023-03-18T14:27:09.595Z,6.18
2023-03-18T14:29:43.297Z,6.65
2023-03-18T14:32:35.158Z,6.20
2023-03-18T14:35:28.289Z,7.75
2023-03-18T14:37:56.349Z,4.60
2023-03-18T14:40:23.170Z,6.30
2023-03-18T14:43:01.290Z,5.07
2023-03-18T14:45:35.950Z,6.65
2023-03-18T14:48:18.565Z,4.00
2023-03-18T14:50:49.568Z,5.72
2023-03-18T14:53:22.712Z,6.90
2023-03-18T14:55:51.482Z,5.43
2023-03-18T14:58:20.664Z,5.18
2023-03-18T15:00:51.610Z,5.13
2023-03-18T15:03:29.316Z,5.63
2023-03-18T15:06:00.423Z,5.72
2023-03-18T15:08:46.477Z,4.53
2023-03-18T15:11:14.171Z,5.50
2023-03-18T15:13:42.374Z,4.45
2023-03-18T15:16:19.744Z,5.95
2023-03-18T15:18:52.902Z,5.35
2023-03-18T15:21:30.201Z,5.30
2023-03-18T15:24:04.246Z,6.05
2023-03-18T15:26:30.954Z,5.70
2023-03-18T15:29:00.337Z,5.95
2023-03-18T15:31:40.162Z,6.22
2023-03-18T15:34:27.223Z,4.20
2023-03-18T15:37:03.351Z,6.35
2023-03-18T15:39:36.063Z,5.07
2023-03-18T15:42:13.525Z,6.22
2023-03-18T15:44:43.233Z,5.70
2023-03-18T15:47:18.418Z,4.40
2023-03-18T15:49:54.410Z,5.88
2023-03-18T15:52:25.533Z,7.80
2023-03-18T15:54:53.424Z,4.35
2023-03-18T15:57:35.022Z,4.10
2023-03-18T16:02:29.832Z,4.88
2023-03-18T16:05:29.105Z,7.47
2023-03-18T16:07:56.020Z,5.47
2023-03-18T16:10:25.636Z,3.80
2023-03-18T16:13:00.563Z,6.10
2023-03-18T16:15:28.123Z,5.38
2023-03-18T16:17:56.204Z,6.97
2023-03-18T16:20:31.357Z,4.97
2023-03-18T16:22:59.744Z,6.47
2023-03-18T16:25:26.906Z,5.43
2023-03-18T16:27:58.762Z,5.50
2023-03-18T16:30:30.949Z,4.88
2023-03-18T16:32:58.705Z,5.72
2023-03-18T16:35:30.701Z,6.38
2023-03-18T16:37:57.768Z,3.63
2023-03-18T16:40:30.027Z,5.82
2023-03-18T16:42:56.827Z,4.28
2023-03-18T16:45:33.129Z,4.07
2023-03-18T16:48:04.299Z,4.88
2023-03-18T16:50:35.864Z,5.45
2023-03-18T16:53:03.736Z,7.20
2023-03-18T16:55:31.475Z,5.13
2023-03-18T16:58:02.560Z,4.93
2023-03-18T17:00:31.797Z,6.13
2023-03-18T17:02:59.733Z,4.18
2023-03-18T17:05:27.580Z,3.95
2023-03-18T17:07:54.443Z,6.15
2023-03-18T17:10:24.189Z,4.82
2023-03-18T17:13:05.790Z,4.43
2023-03-18T17:18:01.612Z,7.25
2023-03-18T17:20:31.236Z,5.13
2023-03-18T17:23:01.172Z,5.57
2023-03-18T17:25:30.380Z,4.63
2023-03-18T17:27:58.802Z,5.53
2023-03-18T17:30:33.825Z,3.75
2023-03-18T17:33:02.671Z,6.20
2023-03-18T17:35:29.890Z,5.97
2023-03-18T17:37:57.149Z,4.78
2023-03-18T17:40:28.333Z,5.25
2023-03-18T17:42:55.123Z,6.53
2023-03-18T17:45:28.806Z,6.50
2023-03-18T17:48:11.520Z,9.63
2023-03-18T17:50:38.473Z,7.25
2023-03-18T17:53:05.293Z,9.43
2023-03-18T17:55:32.345Z,7.88
2023-03-18T17:57:59.783Z,7.57
2023-03-18T18:00:27.241Z,5.72
2023-03-18T18:02:54.669Z,7.22
2023-03-18T18:05:23.259Z,6.90
2023-03-18T18:07:51.401Z,13.32
2023-03-18T18:10:20.474Z,13.82
2023-03-18T18:12:49.834Z,12.77
2023-03-18T18:15:25.433Z,7.05
2023-03-18T18:17:53.307Z,9.13
2023-03-18T18:20:21.684Z,9.45
2023-03-18T18:22:53.179Z,13.70
2023-03-18T18:25:21.945Z,11.00
2023-03-18T18:27:49.736Z,8.85
2023-03-18T18:30:20.128Z,7.72
2023-03-18T18:32:46.836Z,8.70
2023-03-18T18:35:19.224Z,8.70
2023-03-18T18:37:47.591Z,8.82
2023-03-18T18:40:16.289Z,7.35
2023-03-18T18:42:46.404Z,8.02
2023-03-18T18:45:19.253Z,7.53
2023-03-18T18:47:46.435Z,10.25
2023-03-18T18:50:19.640Z,10.65
2023-03-18T18:52:47.249Z,9.40
2023-03-18T18:55:14.251Z,13.18
2023-03-18T18:57:42.781Z,7.78
2023-03-18T19:00:21.989Z,9.38
2023-03-18T19:02:53.237Z,7.55
2023-03-18T19:05:20.035Z,7.00
2023-03-18T19:07:46.844Z,7.32
2023-03-18T19:10:15.979Z,5.75
2023-03-18T19:12:47.189Z,8.43
2023-03-18T19:15:15.657Z,4.53
2023-03-18T19:17:43.350Z,5.10
2023-03-18T19:20:28.628Z,5.30
2023-03-18T19:22:56.902Z,7.18
2023-03-18T19:25:25.748Z,6.35
2023-03-18T19:27:54.064Z,6.30
2023-03-18T19:30:24.657Z,6.35
2023-03-18T19:32:52.288Z,9.10
2023-03-18T19:35:19.087Z,7.60
2023-03-18T19:37:47.812Z,8.68
2023-03-18T19:40:30.155Z,8.00
2023-03-18T19:42:57.109Z,8.30
2023-03-18T19:45:23.962Z,6.95
2023-03-18T19:47:51.081Z,9.18
2023-03-18T19:50:20.035Z,8.68
2023-03-18T19:52:46.983Z,9.20
2023-03-18T19:55:15.913Z,9.32
2023-03-18T19:57:48.137Z,7.93
2023-03-18T20:00:24.755Z,5.78
2023-03-18T20:02:51.676Z,7.05
2023-03-18T20:05:21.366Z,6.63
2023-03-18T20:07:50.294Z,7.35
2023-03-18T20:10:18.831Z,8.05
2023-03-18T20:12:49.532Z,9.90
2023-03-18T20:15:22.779Z,9.87
2023-03-18T20:17:51.087Z,9.88
2023-03-18T20:20:23.851Z,9.30
2023-03-18T20:23:04.788Z,9.57
2023-03-18T20:25:42.865Z,9.33
2023-03-18T20:28:18.974Z,9.48
2023-03-18T20:30:47.350Z,12.32
2023-03-18T20:33:15.238Z,10.90
2023-03-18T20:35:44.398Z,8.50
2023-03-18T20:38:35.328Z,8.20
2023-03-18T20:41:03.154Z,10.50
2023-03-18T20:43:30.267Z,10.90
2023-03-18T20:45:58.705Z,8.88
2023-03-18T20:48:25.757Z,8.52
2023-03-18T20:50:53.070Z,11.20
2023-03-18T20:53:25.020Z,10.95
2023-03-18T20:55:52.207Z,9.88
2023-03-18T20:58:21.976Z,8.50
2023-03-18T21:00:48.933Z,9.40
2023-03-18T21:03:26.004Z,9.68
2023-03-18T21:05:57.841Z,12.38
2023-03-18T21:08:26.100Z,11.00
2023-03-18T21:10:54.073Z,15.70
2023-03-18T21:13:35.545Z,13.13
2023-03-18T21:16:04.198Z,11.63
2023-03-18T21:18:30.892Z,10.15
2023-03-18T21:20:58.192Z,10.88
2023-03-18T21:23:31.749Z,11.32
2023-03-18T21:25:58.980Z,13.18
2023-03-18T21:28:28.285Z,11.20
2023-03-18T21:30:58.294Z,11.05
2023-03-18T21:33:31.349Z,7.72
2023-03-18T21:35:58.793Z,9.95
2023-03-18T21:38:35.004Z,14.18
2023-03-18T21:41:02.216Z,8.50
2023-03-18T21:43:33.838Z,8.20
2023-03-18T21:48:29.088Z,7.53
2023-03-18T21:50:56.484Z,7.43
2023-03-18T21:53:24.309Z,11.57
2023-03-18T21:55:52.188Z,9.93
2023-03-18T21:58:24.260Z,7.45
2023-03-18T22:00:53.898Z,8.60
2023-03-18T22:03:22.937Z,7.93
2023-03-18T22:05:52.114Z,7.97
2023-03-18T22:08:20.251Z,7.72
2023-03-18T22:10:48.992Z,10.25
2023-03-18T22:13:21.407Z,10.50
2023-03-18T22:15:50.388Z,10.23
2023-03-18T22:18:17.553Z,10.15
2023-03-18T22:20:46.079Z,11.77
2023-03-18T22:23:14.829Z,10.05
2023-03-18T22:25:41.988Z,12.82
2023-03-18T22:28:09.024Z,11.80
2023-03-18T22:30:35.785Z,9.50
2023-03-18T22:33:04.295Z,8.43
2023-03-18T22:35:32.809Z,9.88
2023-03-18T22:37:59.903Z,9.30
2023-03-18T22:40:29.385Z,10.70
2023-03-18T22:42:58.462Z,8.73
2023-03-18T22:45:33.714Z,9.80
2023-03-18T22:48:04.433Z,9.93
2023-03-18T22:50:34.555Z,10.73
2023-03-18T22:53:05.591Z,8.07
2023-03-18T22:55:36.603Z,9.05
2023-03-18T22:58:03.577Z,9.65
2023-03-18T23:00:39.034Z,10.68
2023-03-18T23:03:28.656Z,12.20
2023-03-18T23:05:57.058Z,10.75
2023-03-18T23:08:24.592Z,13.38
2023-03-18T23:10:52.950Z,13.10
2023-03-18T23:13:27.556Z,13.70
2023-03-18T23:15:54.410Z,13.95
2023-03-18T23:18:23.469Z,14.43
2023-03-18T23:20:51.731Z,15.32
2023-03-18T23:23:20.959Z,14.75
2023-03-18T23:25:49.089Z,18.48
2023-03-18T23:28:16.124Z,18.00
2023-03-18T23:30:46.741Z,16.42
2023-03-18T23:33:13.901Z,17.17
2023-03-18T23:35:41.750Z,18.85
2023-03-18T23:38:08.521Z,19.17
2023-03-18T23:40:35.464Z,17.73
2023-03-18T23:43:02.302Z,20.23
2023-03-18T23:45:29.465Z,18.00
2023-03-18T23:47:56.446Z,18.50
2023-03-18T23:50:23.541Z,18.63
2023-03-18T23:52:50.362Z,19.52
2023-03-18T23:55:33.241Z,20.73
2023-03-18T23:58:04.795Z,19.70
